Time;durP1;ratioP1;P1;durP2;ratioP2;P2;SDS_P1;SDS_P2;PMS_P1;PMS_P2;Temp;Humidity;BMP_temperature;BMP_pressure;BME280_temperature;BME280_humidity;BME280_pressure;Samples;Min_cycle;Max_cycle;Signal;HPM_P1;HPM_P2
2022/08/31 00:06:21;;;;;;;1.85;1.52;;;24.60;49.10;;;;;;4967710;28;87547;-82
2022/08/31 00:08:47;;;;;;;5.00;1.90;;;24.60;49.10;;;;;;4968711;28;87693;-82
2022/08/31 00:11:14;;;;;;;2.75;1.52;;;24.60;49.00;;;;;;4970159;28;87911;-81
2022/08/31 00:13:41;;;;;;;1.75;1.30;;;24.60;49.10;;;;;;4969871;28;87845;-82
2022/08/31 00:16:08;;;;;;;2.55;1.30;;;24.60;48.90;;;;;;4966907;28;87599;-82
2022/08/31 00:18:34;;;;;;;2.17;1.50;;;24.60;49.10;;;;;;4967158;28;90040;-81
2022/08/31 00:21:00;;;;;;;2.85;1.45;;;24.60;49.10;;;;;;4967383;28;89043;-82
2022/08/31 00:23:25;;;;;;;2.65;1.67;;;24.60;49.00;;;;;;4970560;28;88670;-81
2022/08/31 00:25:51;;;;;;;1.88;1.58;;;24.60;49.10;;;;;;4967392;28;87237;-82
2022/08/31 00:28:18;;;;;;;1.65;1.10;;;24.60;49.10;;;;;;4968113;28;87437;-81
2022/08/31 00:30:45;;;;;;;1.90;1.40;;;24.60;49.10;;;;;;4967046;28;88226;-81
2022/08/31 00:33:11;;;;;;;1.98;1.45;;;24.60;49.10;;;;;;4967711;28;90733;-82
2022/08/31 00:35:40;;;;;;;2.28;1.23;;;24.60;49.20;;;;;;4967514;28;87147;-82
2022/08/31 00:38:06;;;;;;;2.22;1.40;;;24.60;49.10;;;;;;4968212;28;87303;-81
2022/08/31 00:40:34;;;;;;;1.60;1.23;;;24.60;49.20;;;;;;4967590;28;87733;-82
2022/08/31 00:42:59;;;;;;;2.60;1.50;;;24.60;49.20;;;;;;4997969;28;90277;-82
2022/08/31 00:45:26;;;;;;;1.58;1.42;;;24.60;49.30;;;;;;4968538;28;88207;-82
2022/08/31 00:47:52;;;;;;;2.28;1.33;;;24.60;49.40;;;;;;4967351;28;87484;-82
2022/08/31 00:50:19;;;;;;;2.05;1.52;;;24.60;49.20;;;;;;4969343;28;88641;-82
2022/08/31 00:52:49;;;;;;;1.63;1.23;;;24.60;49.30;;;;;;4969332;28;87327;-82
2022/08/31 00:55:20;;;;;;;2.13;1.50;;;24.60;49.20;;;;;;4966626;28;87188;-81
2022/08/31 00:57:50;;;;;;;1.83;1.60;;;24.60;49.20;;;;;;4965752;28;89663;-82
2022/08/31 01:00:20;;;;;;;1.42;1.33;;;24.60;49.40;;;;;;4961674;28;88454;-81
2022/08/31 01:02:46;;;;;;;1.77;1.52;;;24.60;49.30;;;;;;4994432;28;89637;-82
2022/08/31 01:05:12;;;;;;;2.30;1.45;;;24.60;49.30;;;;;;4966388;28;87226;-81
2022/08/31 01:07:39;;;;;;;1.85;1.30;;;24.60;49.40;;;;;;4966795;28;87096;-82
2022/08/31 01:10:07;;;;;;;1.65;1.35;;;24.60;49.40;;;;;;4964886;28;93036;-82
2022/08/31 01:12:33;;;;;;;1.95;1.27;;;24.60;49.50;;;;;;4966002;28;89915;-82
2022/08/31 01:15:01;;;;;;;1.95;1.40;;;24.60;49.60;;;;;;4966497;28;87348;-82
2022/08/31 01:17:26;;;;;;;1.48;1.25;;;24.60;49.40;;;;;;4966461;28;87668;-82
2022/08/31 01:20:20;;;;;;;1.60;1.25;;;24.60;49.40;;;;;;4998036;28;91997;-82
2022/08/31 01:23:07;;;;;;;1.30;1.13;;;24.60;49.30;;;;;;4966467;28;93080;-81
2022/08/31 01:25:35;;;;;;;1.33;1.23;;;24.60;49.50;;;;;;4998609;28;86968;-82
2022/08/31 01:28:05;;;;;;;1.65;1.23;;;24.60;49.50;;;;;;4967681;28;87155;-81
2022/08/31 01:30:32;;;;;;;1.50;1.30;;;24.50;49.40;;;;;;4966412;28;88609;-82
2022/08/31 01:32:59;;;;;;;1.75;1.55;;;24.60;49.40;;;;;;4966560;28;88352;-82
2022/08/31 01:35:24;;;;;;;1.42;1.30;;;24.50;49.50;;;;;;4996716;28;88009;-82
2022/08/31 01:37:51;;;;;;;2.22;1.45;;;24.50;49.40;;;;;;4967532;28;87233;-82
2022/08/31 01:40:16;;;;;;;1.45;1.35;;;24.60;49.30;;;;;;4966565;28;88744;-82
2022/08/31 01:42:42;;;;;;;1.33;1.23;;;24.60;49.50;;;;;;4958739;28;87428;-82
2022/08/31 01:45:08;;;;;;;1.73;1.20;;;24.50;49.50;;;;;;4967653;28;87150;-82
2022/08/31 01:47:34;;;;;;;1.38;1.20;;;24.50;49.40;;;;;;4960297;28;87018;-82
2022/08/31 01:50:00;;;;;;;1.50;1.05;;;24.50;49.60;;;;;;4968232;28;88685;-82
2022/08/31 01:52:26;;;;;;;1.30;1.20;;;24.50;49.60;;;;;;4966673;28;88127;-81
2022/08/31 01:54:52;;;;;;;1.40;1.13;;;24.50;49.60;;;;;;4965079;28;87322;-81
2022/08/31 01:57:17;;;;;;;2.00;1.25;;;24.50;49.60;;;;;;4966526;28;87488;-82
2022/08/31 01:59:43;;;;;;;1.23;1.13;;;24.50;49.50;;;;;;4967153;28;89076;-82
2022/08/31 02:02:08;;;;;;;1.33;1.17;;;24.50;49.60;;;;;;4999230;28;91065;-81
2022/08/31 02:04:34;;;;;;;1.38;1.13;;;24.50;49.60;;;;;;4967786;28;86882;-81
2022/08/31 02:07:00;;;;;;;1.30;1.20;;;24.50;49.60;;;;;;4968003;28;87571;-81
2022/08/31 02:09:27;;;;;;;1.20;1.00;;;24.50;49.60;;;;;;4966916;28;87858;-82
2022/08/31 02:11:53;;;;;;;1.60;1.20;;;24.50;49.60;;;;;;4967073;28;87876;-81
2022/08/31 02:14:20;;;;;;;1.33;1.10;;;24.50;49.60;;;;;;4964970;28;86992;-81
2022/08/31 02:16:47;;;;;;;3.00;1.38;;;24.50;49.70;;;;;;4968391;28;87493;-82
2022/08/31 02:19:13;;;;;;;3.50;1.75;;;24.50;49.70;;;;;;4966259;28;88086;-81
2022/08/31 02:21:39;;;;;;;1.45;1.35;;;24.50;49.80;;;;;;4966727;28;88006;-82
2022/08/31 02:24:06;;;;;;;1.40;1.00;;;24.50;49.80;;;;;;4965425;28;88157;-81
2022/08/31 02:26:32;;;;;;;1.65;1.35;;;24.50;49.80;;;;;;4965420;28;87511;-82
2022/08/31 02:28:57;;;;;;;2.28;1.48;;;24.50;49.80;;;;;;4969639;28;88268;-82
2022/08/31 02:31:23;;;;;;;1.33;1.23;;;24.50;49.90;;;;;;5000896;28;91135;-82
2022/08/31 02:33:49;;;;;;;1.33;1.15;;;24.50;50.10;;;;;;4970232;28;87678;-82
2022/08/31 02:36:14;;;;;;;1.70;1.30;;;24.50;49.90;;;;;;4969958;28;87398;-81
2022/08/31 02:38:40;;;;;;;1.80;1.25;;;24.50;49.90;;;;;;4968836;28;91152;-82
2022/08/31 02:41:05;;;;;;;1.20;1.10;;;24.50;49.90;;;;;;4969466;28;91311;-81
2022/08/31 02:43:31;;;;;;;1.73;1.30;;;24.50;49.80;;;;;;4971145;28;87045;-81
2022/08/31 02:45:57;;;;;;;1.20;1.10;;;24.50;49.90;;;;;;4969790;28;86893;-82
2022/08/31 02:48:23;;;;;;;1.58;1.20;;;24.50;50.00;;;;;;4968429;28;87995;-82
2022/08/31 02:50:51;;;;;;;1.50;1.20;;;24.50;50.10;;;;;;4969587;28;89231;-82
2022/08/31 02:53:20;;;;;;;1.40;1.30;;;24.50;50.10;;;;;;4970305;28;87278;-81
2022/08/31 02:55:45;;;;;;;1.07;0.90;;;24.50;50.00;;;;;;4970732;28;87420;-81
2022/08/31 02:58:11;;;;;;;1.50;1.40;;;24.40;50.00;;;;;;4968465;28;87513;-82
2022/08/31 03:00:39;;;;;;;1.25;1.10;;;24.40;50.00;;;;;;4968886;28;88059;-81
2022/08/31 03:03:05;;;;;;;2.33;1.52;;;24.40;49.90;;;;;;4971908;28;87529;-82
2022/08/31 03:05:30;;;;;;;1.15;1.05;;;24.40;50.10;;;;;;4969072;28;87471;-81
2022/08/31 03:07:56;;;;;;;1.80;1.25;;;24.40;50.10;;;;;;4970564;28;87725;-82
2022/08/31 03:10:24;;;;;;;1.50;1.10;;;24.40;50.00;;;;;;4969024;28;88035;-82
2022/08/31 03:12:51;;;;;;;1.13;1.02;;;24.40;50.10;;;;;;4968712;28;88397;-82
2022/08/31 03:15:19;;;;;;;3.20;1.20;;;24.40;50.00;;;;;;4968453;28;90782;-82
2022/08/31 03:17:45;;;;;;;1.33;1.08;;;24.40;50.00;;;;;;4970087;28;88434;-81
2022/08/31 03:20:12;;;;;;;1.40;1.10;;;24.40;50.70;;;;;;4968302;28;91055;-81
2022/08/31 03:22:38;;;;;;;1.35;1.25;;;24.40;50.10;;;;;;4965988;28;87536;-82
2022/08/31 03:25:05;;;;;;;1.20;1.10;;;24.40;50.30;;;;;;4966498;28;87617;-82
2022/08/31 03:27:30;;;;;;;1.38;1.27;;;24.40;50.20;;;;;;4965249;28;88645;-81
2022/08/31 03:29:57;;;;;;;1.40;1.05;;;24.40;50.30;;;;;;4965216;28;88116;-81
2022/08/31 03:32:26;;;;;;;2.67;1.10;;;24.40;50.20;;;;;;4966052;28;87272;-81
2022/08/31 03:34:53;;;;;;;1.50;1.40;;;24.40;50.20;;;;;;4967777;28;87652;-81
2022/08/31 03:37:20;;;;;;;1.48;1.30;;;24.40;50.20;;;;;;4966292;28;89175;-82
2022/08/31 03:39:46;;;;;;;1.77;1.38;;;24.40;50.30;;;;;;4984727;28;92659;-81
2022/08/31 03:42:12;;;;;;;1.55;1.10;;;24.40;50.10;;;;;;4966345;28;87255;-82
2022/08/31 03:44:37;;;;;;;2.17;1.00;;;24.40;50.00;;;;;;4965692;28;87417;-82
2022/08/31 03:47:03;;;;;;;1.33;1.23;;;24.40;50.20;;;;;;4968170;28;87183;-82
2022/08/31 03:49:29;;;;;;;2.17;1.30;;;24.30;50.20;;;;;;4958354;28;88164;-82
2022/08/31 03:51:54;;;;;;;2.28;1.30;;;24.40;50.60;;;;;;4966956;28;87650;-82
2022/08/31 03:54:20;;;;;;;1.17;0.90;;;24.30;50.60;;;;;;4966745;28;87400;-83
2022/08/31 03:56:46;;;;;;;1.58;1.30;;;24.40;50.70;;;;;;4969914;28;87601;-82
2022/08/31 03:59:12;;;;;;;1.48;1.38;;;24.30;50.70;;;;;;4968495;28;88273;-82
2022/08/31 04:01:38;;;;;;;1.40;1.30;;;24.40;50.80;;;;;;4969394;28;88525;-82
2022/08/31 04:04:04;;;;;;;1.10;1.00;;;24.30;50.70;;;;;;4967245;28;93945;-81
2022/08/31 04:06:31;;;;;;;1.48;1.38;;;24.30;50.80;;;;;;4967440;28;88248;-82
2022/08/31 04:08:56;;;;;;;1.10;1.00;;;24.30;50.90;;;;;;4982830;28;90235;-82
2022/08/31 04:11:23;;;;;;;1.40;1.00;;;24.30;50.80;;;;;;4969134;28;87408;-82
2022/08/31 04:13:48;;;;;;;1.00;0.90;;;24.30;50.90;;;;;;4969955;28;87704;-81
2022/08/31 04:16:18;;;;;;;1.88;1.30;;;24.30;50.90;;;;;;4967883;28;88769;-82
2022/08/31 04:18:45;;;;;;;2.47;0.93;;;24.30;50.90;;;;;;4967093;28;88490;-81
2022/08/31 04:21:16;;;;;;;1.17;1.08;;;24.30;50.60;;;;;;4969791;28;87229;-82
2022/08/31 04:23:42;;;;;;;1.35;1.25;;;24.30;50.70;;;;;;4967409;28;87039;-82
2022/08/31 04:26:22;;;;;;;1.40;1.30;;;24.30;50.60;;;;;;4966620;28;88596;-82
2022/08/31 04:28:48;;;;;;;2.55;1.00;;;24.30;50.60;;;;;;4968898;28;92982;-82
2022/08/31 04:31:14;;;;;;;1.50;1.30;;;24.30;50.70;;;;;;4967820;28;87618;-82
2022/08/31 04:33:40;;;;;;;1.10;1.00;;;24.30;50.70;;;;;;4967990;28;87590;-82
2022/08/31 04:36:13;;;;;;;1.63;1.25;;;24.30;50.70;;;;;;4967612;28;87452;-82
2022/08/31 04:38:42;;;;;;;1.15;1.05;;;24.30;50.70;;;;;;4967392;28;88650;-82
2022/08/31 04:41:09;;;;;;;1.10;1.00;;;24.30;51.40;;;;;;4970126;28;87110;-82
2022/08/31 04:43:36;;;;;;;1.92;1.33;;;24.30;51.30;;;;;;4969096;28;91573;-82
2022/08/31 04:46:03;;;;;;;1.10;1.00;;;24.30;50.70;;;;;;4966083;28;87655;-82
2022/08/31 04:48:29;;;;;;;0.90;0.90;;;24.30;50.80;;;;;;4969209;28;87951;-81
2022/08/31 04:51:02;;;;;;;1.42;1.00;;;24.30;50.70;;;;;;4966049;28;88146;-82
2022/08/31 04:53:28;;;;;;;1.40;1.30;;;24.30;50.80;;;;;;4966639;28;87493;-82
2022/08/31 04:55:53;;;;;;;1.85;1.23;;;24.30;50.70;;;;;;4968252;28;88292;-82
2022/08/31 04:58:19;;;;;;;1.10;1.00;;;24.30;50.80;;;;;;4966683;28;87508;-82
2022/08/31 05:00:45;;;;;;;1.10;1.00;;;24.30;50.80;;;;;;4967986;28;86876;-82
2022/08/31 05:03:11;;;;;;;1.67;1.15;;;24.30;50.80;;;;;;4967915;28;88015;-82
2022/08/31 05:05:40;;;;;;;1.85;1.13;;;24.30;50.80;;;;;;4966101;28;89533;-82
2022/08/31 05:08:06;;;;;;;1.70;1.10;;;24.30;50.70;;;;;;4969147;28;87364;-82
2022/08/31 05:10:32;;;;;;;1.45;1.35;;;24.30;50.70;;;;;;4966855;28;87534;-82
2022/08/31 05:12:57;;;;;;;1.00;1.00;;;24.30;50.80;;;;;;4966644;28;86942;-82
2022/08/31 05:15:23;;;;;;;1.17;1.08;;;24.30;50.80;;;;;;4967683;28;88509;-82
2022/08/31 05:17:48;;;;;;;1.33;1.02;;;24.30;50.80;;;;;;4967083;28;88225;-82
2022/08/31 05:20:14;;;;;;;1.33;1.00;;;24.30;50.70;;;;;;4968335;28;86911;-82
2022/08/31 05:22:39;;;;;;;1.40;1.30;;;24.30;50.80;;;;;;4968470;28;90034;-82
2022/08/31 05:25:06;;;;;;;2.00;1.33;;;24.30;50.80;;;;;;4965532;28;87855;-82
2022/08/31 05:27:33;;;;;;;1.10;1.00;;;24.30;50.80;;;;;;4999124;28;91923;-81
2022/08/31 05:29:59;;;;;;;1.40;1.00;;;24.30;50.80;;;;;;4967411;28;87478;-82
2022/08/31 05:32:25;;;;;;;1.20;1.10;;;24.30;50.80;;;;;;4967619;28;87658;-81
2022/08/31 05:34:50;;;;;;;1.23;1.00;;;24.30;50.90;;;;;;4966114;28;88149;-82
2022/08/31 05:37:16;;;;;;;1.13;1.02;;;24.30;50.80;;;;;;4968370;28;87835;-82
2022/08/31 05:39:42;;;;;;;1.30;1.00;;;24.30;50.90;;;;;;4966773;28;88449;-82
2022/08/31 05:42:08;;;;;;;1.10;1.10;;;24.30;50.90;;;;;;4967747;28;87372;-82
2022/08/31 05:44:34;;;;;;;1.10;1.00;;;24.30;50.90;;;;;;4967292;28;87464;-82
2022/08/31 05:47:00;;;;;;;1.20;1.10;;;24.30;50.90;;;;;;4969462;28;87766;-82
2022/08/31 05:49:27;;;;;;;1.67;1.20;;;24.30;50.90;;;;;;4998266;28;87642;-81
2022/08/31 05:51:52;;;;;;;1.13;1.02;;;24.30;51.00;;;;;;4966724;28;87277;-82
2022/08/31 05:54:18;;;;;;;1.30;1.20;;;24.30;50.90;;;;;;4967866;28;87360;-82
2022/08/31 05:56:44;;;;;;;1.33;1.10;;;24.30;50.90;;;;;;4967760;28;88824;-82
2022/08/31 05:59:11;;;;;;;1.10;1.00;;;24.30;51.60;;;;;;4968037;28;87624;-81
2022/08/31 06:01:39;;;;;;;0.90;0.80;;;24.30;51.00;;;;;;4966315;28;87566;-82
2022/08/31 06:04:06;;;;;;;1.27;1.13;;;24.30;51.00;;;;;;4965149;28;89481;-82
2022/08/31 06:06:33;;;;;;;1.20;1.10;;;24.30;50.90;;;;;;4966746;28;89249;-82
2022/08/31 06:08:58;;;;;;;1.25;0.98;;;24.30;50.90;;;;;;4965589;28;87315;-82
2022/08/31 06:11:28;;;;;;;0.98;0.90;;;24.30;51.00;;;;;;4966654;28;89106;-82
2022/08/31 06:13:57;;;;;;;1.20;1.10;;;24.30;50.90;;;;;;4967904;28;88144;-82
2022/08/31 06:16:23;;;;;;;1.17;1.08;;;24.30;51.10;;;;;;4965611;28;88502;-82
2022/08/31 06:18:49;;;;;;;1.20;1.10;;;24.30;51.00;;;;;;4966271;28;87123;-82
2022/08/31 06:21:21;;;;;;;1.05;0.95;;;24.30;51.00;;;;;;4966605;28;86863;-82
2022/08/31 06:23:48;;;;;;;1.35;1.10;;;24.30;51.00;;;;;;4966887;28;88708;-82
2022/08/31 06:26:16;;;;;;;1.20;1.10;;;24.40;50.80;;;;;;4968647;28;86839;-82
2022/08/31 06:28:44;;;;;;;1.10;1.00;;;24.40;50.80;;;;;;4965960;28;88006;-81
2022/08/31 06:31:19;;;;;;;0.85;0.85;;;24.50;50.80;;;;;;4965269;28;87840;-82
2022/08/31 06:33:46;;;;;;;1.10;1.00;;;24.50;50.80;;;;;;4998645;28;88726;-82
2022/08/31 06:36:14;;;;;;;1.25;1.00;;;24.50;50.70;;;;;;4966508;28;88110;-82
2022/08/31 06:38:42;;;;;;;0.93;0.93;;;24.60;50.90;;;;;;4967486;28;87351;-82
2022/08/31 06:41:22;;;;;;;0.85;0.85;;;24.60;50.80;;;;;;4997929;28;89835;-82
2022/08/31 06:43:48;;;;;;;1.25;1.15;;;24.60;50.90;;;;;;4965437;28;92236;-82
2022/08/31 06:46:16;;;;;;;1.20;1.10;;;24.60;50.90;;;;;;4967595;28;86606;-82
2022/08/31 06:48:42;;;;;;;1.00;0.90;;;24.70;50.90;;;;;;4964906;28;87053;-84
2022/08/31 06:51:09;;;;;;;3.90;1.27;;;24.70;50.70;;;;;;4967408;28;87901;-84
2022/08/31 06:53:35;;;;;;;4.63;1.75;;;24.80;50.90;;;;;;4965699;28;90223;-83
2022/08/31 06:56:09;;;;;;;3.03;1.75;;;24.80;51.50;;;;;;4966956;28;88270;-83
2022/08/31 06:58:35;;;;;;;4.72;2.33;;;24.70;51.50;;;;;;4966729;28;87132;-87
2022/08/31 07:01:10;;;;;;;2.22;1.55;;;24.60;51.60;;;;;;4968057;28;87992;-86
2022/08/31 07:03:37;;;;;;;5.20;2.10;;;24.70;52.00;;;;;;4966076;28;87318;-86
2022/08/31 07:06:09;;;;;;;6.05;2.05;;;24.60;51.70;;;;;;4981281;28;90722;-86
2022/08/31 07:08:36;;;;;;;6.22;1.92;;;24.50;52.00;;;;;;4965274;28;87505;-82
2022/08/31 07:11:02;;;;;;;4.78;2.10;;;24.50;52.10;;;;;;4969066;28;87296;-82
2022/08/31 07:13:28;;;;;;;8.18;2.47;;;24.60;51.90;;;;;;4970063;28;88566;-82
2022/08/31 07:16:06;;;;;;;4.38;2.00;;;24.60;51.80;;;;;;4967869;28;87387;-82
2022/08/31 07:18:32;;;;;;;3.47;2.08;;;24.60;51.70;;;;;;4969570;28;88151;-82
2022/08/31 07:21:24;;;;;;;5.18;2.08;;;24.60;51.20;;;;;;4970635;28;87513;-82
2022/08/31 07:23:51;;;;;;;3.85;2.05;;;24.40;51.50;;;;;;4971173;28;88468;-82
2022/08/31 07:26:23;;;;;;;5.45;1.80;;;24.40;51.60;;;;;;4964894;28;87270;-82
2022/08/31 07:28:53;;;;;;;5.28;1.90;;;24.30;51.60;;;;;;4964997;28;87172;-83
2022/08/31 07:31:21;;;;;;;2.67;1.55;;;24.30;51.50;;;;;;4962136;28;88084;-83
2022/08/31 07:33:48;;;;;;;6.78;2.10;;;24.20;51.70;;;;;;4963538;28;89081;-83
2022/08/31 07:36:15;;;;;;;4.28;1.80;;;24.20;51.70;;;;;;4927214;28;87375;-83
2022/08/31 07:44:22;;;;;;;2.25;1.55;;;24.20;51.50;;;;;;4909948;28;89304;-83
2022/08/31 07:46:49;;;;;;;3.38;1.83;;;24.20;51.90;;;;;;4925390;28;92218;-83
2022/08/31 07:49:15;;;;;;;4.97;1.50;;;24.20;52.40;;;;;;4905538;28;87834;-83
2022/08/31 07:51:49;;;;;;;4.30;1.42;;;24.20;51.80;;;;;;4906068;28;87378;-83
2022/08/31 07:54:19;;;;;;;8.63;1.80;;;24.10;51.80;;;;;;4905681;28;87829;-81
2022/08/31 07:56:47;;;;;;;3.88;1.60;;;24.20;51.80;;;;;;4893337;28;94910;-83
2022/08/31 07:59:13;;;;;;;5.25;1.92;;;24.30;51.60;;;;;;4908451;28;87077;-83
2022/08/31 08:01:42;;;;;;;6.47;2.10;;;24.20;51.60;;;;;;4907735;28;86344;-83
2022/08/31 08:04:13;;;;;;;7.20;2.17;;;24.20;51.50;;;;;;4923377;28;92764;-84
2022/08/31 08:06:39;;;;;;;8.80;1.88;;;24.30;51.80;;;;;;4892544;28;90103;-85
2022/08/31 08:09:06;;;;;;;14.45;1.92;;;24.30;51.70;;;;;;4910741;28;88607;-85
2022/08/31 08:11:40;;;;;;;8.32;1.92;;;24.40;51.70;;;;;;4895431;28;88824;-85
2022/08/31 08:14:06;;;;;;;7.50;1.85;;;24.40;51.50;;;;;;4927490;28;88903;-83
2022/08/31 08:16:52;;;;;;;7.40;1.98;;;24.50;51.80;;;;;;4914063;28;88881;-85
2022/08/31 08:19:19;;;;;;;5.05;2.40;;;24.40;51.30;;;;;;4908999;28;87596;-83
2022/08/31 08:21:45;;;;;;;60.85;11.48;;;24.40;51.70;;;;;;4938928;28;88230;-84
2022/08/31 08:24:11;;;;;;;42.40;9.70;;;24.40;51.60;;;;;;4935273;28;88507;-83
2022/08/31 08:26:40;;;;;;;30.00;6.80;;;24.30;51.70;;;;;;4930785;28;88581;-86
2022/08/31 08:29:06;;;;;;;29.25;7.25;;;24.30;51.80;;;;;;4930727;28;87014;-85
2022/08/31 08:31:33;;;;;;;31.33;5.78;;;24.20;52.10;;;;;;4929350;28;90622;-85
2022/08/31 08:33:58;;;;;;;11.80;3.92;;;24.20;52.10;;;;;;4931020;28;89439;-85
2022/08/31 08:36:25;;;;;;;17.05;3.63;;;24.20;52.20;;;;;;4929707;28;88504;-87
2022/08/31 08:38:52;;;;;;;15.73;3.65;;;24.20;52.30;;;;;;4927838;28;87820;-85
2022/08/31 08:41:45;;;;;;;14.73;3.65;;;24.30;52.30;;;;;;4929592;28;89780;-85
2022/08/31 08:44:13;;;;;;;12.35;3.80;;;24.30;52.40;;;;;;4931476;28;89354;-87
2022/08/31 08:46:50;;;;;;;7.20;2.83;;;24.30;52.40;;;;;;4925699;28;95667;-86
2022/08/31 08:49:53;;;;;;;11.30;3.03;;;24.40;52.50;;;;;;4927031;28;89874;-85
2022/08/31 08:52:24;;;;;;;8.02;2.70;;;24.40;52.80;;;;;;4931914;28;87175;-88
2022/08/31 08:54:52;;;;;;;6.32;2.42;;;24.50;52.70;;;;;;4930758;28;87817;-86
2022/08/31 08:57:23;;;;;;;6.13;2.55;;;24.60;52.50;;;;;;4927106;28;88152;-85
2022/08/31 08:59:50;;;;;;;5.22;2.95;;;24.60;52.50;;;;;;4927146;28;88192;-85
2022/08/31 09:02:24;;;;;;;5.30;2.95;;;24.60;52.60;;;;;;4928406;28;87411;-86
2022/08/31 09:04:58;;;;;;;7.95;2.65;;;24.60;52.40;;;;;;4929654;28;88318;-84
2022/08/31 09:07:45;;;;;;;10.25;3.20;;;24.50;52.60;;;;;;4930904;28;88381;-83
2022/08/31 09:10:37;;;;;;;8.63;3.47;;;24.50;52.70;;;;;;4961597;28;87008;-84
2022/08/31 09:13:08;;;;;;;8.18;3.25;;;24.50;52.40;;;;;;4946845;28;89288;-86
2022/08/31 09:16:00;;;;;;;10.95;2.97;;;24.40;52.70;;;;;;4930012;28;92131;-85
2022/08/31 09:18:53;;;;;;;5.35;2.88;;;24.40;52.70;;;;;;4928902;28;88261;-84
2022/08/31 09:21:24;;;;;;;9.52;2.67;;;24.30;52.70;;;;;;4915327;28;87900;-86
2022/08/31 09:24:25;;;;;;;7.40;2.25;;;24.40;52.40;;;;;;4929553;28;88404;-85
2022/08/31 09:26:57;;;;;;;6.80;3.05;;;24.50;52.60;;;;;;4892947;28;92943;-83
2022/08/31 09:29:25;;;;;;;3.88;2.95;;;24.60;52.70;;;;;;4879305;28;92746;-86
2022/08/31 09:32:06;;;;;;;6.47;2.80;;;24.60;52.70;;;;;;4897187;28;88324;-85
2022/08/31 09:34:40;;;;;;;3.47;2.80;;;24.60;52.70;;;;;;4880961;28;90617;-86
2022/08/31 09:37:19;;;;;;;6.97;3.17;;;24.60;53.00;;;;;;4878283;28;91959;-86
2022/08/31 09:39:47;;;;;;;7.03;3.75;;;24.60;53.10;;;;;;4895671;28;87707;-86
2022/08/31 09:42:31;;;;;;;4.57;2.93;;;24.60;52.60;;;;;;4893924;28;89895;-86
2022/08/31 09:45:15;;;;;;;5.72;2.88;;;24.60;52.30;;;;;;4894124;28;86625;-86
2022/08/31 09:47:52;;;;;;;8.52;3.35;;;24.60;52.30;;;;;;4877540;28;89962;-86
2022/08/31 09:50:46;;;;;;;8.75;3.13;;;24.60;52.80;;;;;;4879026;28;89680;-86
2022/08/31 09:56:20;;;;;;;7.88;3.35;;;24.60;53.10;;;;;;4895638;28;87561;-87
2022/08/31 09:59:04;;;;;;;7.63;2.95;;;24.60;53.10;;;;;;4875839;28;96648;-86
2022/08/31 10:01:45;;;;;;;9.52;3.25;;;24.60;53.30;;;;;;4890456;28;87168;-86
2022/08/31 10:04:46;;;;;;;6.57;2.92;;;24.60;53.60;;;;;;4942127;28;88445;-86
2022/08/31 10:07:42;;;;;;;6.13;2.70;;;24.50;53.50;;;;;;4965888;28;87640;-88
2022/08/31 10:10:30;;;;;;;;;;;;;;;;;;;;;
2022/08/31 10:13:04;;;;;;;8.43;2.43;;;24.40;53.80;;;;;;4968234;28;92022;-86
2022/08/31 10:15:38;;;;;;;4.00;2.35;;;24.40;53.80;;;;;;4965719;28;88361;-85
2022/08/31 10:19:00;;;;;;;5.13;2.40;;;24.40;53.80;;;;;;4966481;28;87649;-86
2022/08/31 10:21:52;;;;;;;4.05;2.75;;;24.40;53.70;;;;;;4865031;28;91855;-86
2022/08/31 10:24:45;;;;;;;7.32;2.50;;;24.40;53.80;;;;;;4868921;28;91016;-86
2022/08/31 10:27:30;;;;;;;4.00;2.25;;;24.40;53.90;;;;;;4880239;28;88511;-85
2022/08/31 10:30:02;;;;;;;5.82;2.75;;;24.40;54.00;;;;;;4879580;28;93254;-85
2022/08/31 10:32:39;;;;;;;6.25;2.22;;;24.40;54.10;;;;;;4880635;28;88061;-86
2022/08/31 10:35:24;;;;;;;5.60;2.63;;;24.40;54.40;;;;;;4866015;28;88285;-84
2022/08/31 10:38:20;;;;;;;7.35;2.88;;;24.40;54.50;;;;;;4832365;29;88468;-84
2022/08/31 10:41:15;;;;;;;5.15;2.50;;;24.40;54.80;;;;;;4846290;29;91687;-85
2022/08/31 10:44:00;;;;;;;4.85;2.22;;;24.50;54.70;;;;;;4825093;29;95859;-85
2022/08/31 10:46:29;;;;;;;3.75;2.58;;;24.40;54.80;;;;;;4830254;29;89803;-85
2022/08/31 10:48:57;;;;;;;5.05;3.03;;;24.40;54.60;;;;;;4842571;28;87970;-85
2022/08/31 10:51:41;;;;;;;4.88;2.70;;;24.40;54.90;;;;;;4850519;28;87064;-83
2022/08/31 10:54:27;;;;;;;6.15;2.88;;;24.40;55.30;;;;;;4855027;28;88573;-84
2022/08/31 10:57:20;;;;;;;4.70;2.65;;;24.50;55.20;;;;;;4947182;28;93301;-84
2022/08/31 11:00:03;;;;;;;4.95;2.88;;;24.50;56.00;;;;;;4929229;28;87625;-86
2022/08/31 11:03:03;;;;;;;9.23;3.08;;;24.50;55.60;;;;;;4931353;28;89777;-85
2022/08/31 11:05:36;;;;;;;5.43;2.92;;;24.50;55.50;;;;;;4940997;28;91219;-85
2022/08/31 11:08:31;;;;;;;6.50;3.40;;;24.40;55.80;;;;;;4932552;28;87964;-86
2022/08/31 11:11:00;;;;;;;4.78;2.78;;;24.40;55.80;;;;;;4928776;28;87423;-85
2022/08/31 11:13:50;;;;;;;5.57;3.10;;;24.40;56.30;;;;;;4932193;28;90923;-85
2022/08/31 11:17:05;;;;;;;4.43;3.25;;;24.40;56.00;;;;;;4948258;28;89434;-84
2022/08/31 11:19:55;;;;;;;6.35;2.72;;;24.40;55.80;;;;;;4893984;28;87647;-83
2022/08/31 11:23:04;;;;;;;7.72;3.05;;;24.50;57.20;;;;;;4874781;28;88511;-83
2022/08/31 11:25:57;;;;;;;6.13;3.13;;;24.50;56.80;;;;;;4873223;28;87899;-83
2022/08/31 11:29:01;;;;;;;5.70;3.03;;;24.60;56.70;;;;;;4872861;28;89048;-83
2022/08/31 11:31:29;;;;;;;11.35;3.00;;;24.60;56.30;;;;;;4860275;28;88053;-83
2022/08/31 11:34:12;;;;;;;8.25;3.83;;;24.70;56.40;;;;;;4849543;28;89842;-82
2022/08/31 11:37:35;;;;;;;10.25;3.60;;;24.70;56.00;;;;;;4859250;28;87247;-83
2022/08/31 11:40:00;;;;;;;9.77;4.00;;;24.50;55.70;;;;;;4825258;29;88689;-83
2022/08/31 11:42:26;;;;;;;11.75;3.42;;;24.50;56.00;;;;;;4822671;29;87330;-83
2022/08/31 11:45:05;;;;;;;6.13;3.42;;;24.50;56.10;;;;;;4815652;29;88631;-83
2022/08/31 11:47:43;;;;;;;5.75;3.45;;;24.60;56.10;;;;;;4815983;29;90222;-83
2022/08/31 11:50:50;;;;;;;8.48;3.42;;;24.70;55.80;;;;;;4829987;29;91444;-82
2022/08/31 11:53:51;;;;;;;8.68;3.50;;;24.70;56.00;;;;;;4824067;29;93607;-81
2022/08/31 11:56:36;;;;;;;8.60;3.28;;;24.60;56.10;;;;;;4832302;28;89910;-82
2022/08/31 11:59:17;;;;;;;7.47;3.40;;;24.60;55.70;;;;;;4835752;29;87521;-82
2022/08/31 12:01:43;;;;;;;7.05;3.22;;;24.60;55.40;;;;;;4850919;28;96560;-82
2022/08/31 12:04:29;;;;;;;4.43;2.85;;;24.60;55.70;;;;;;4841228;28;87451;-81
2022/08/31 12:07:00;;;;;;;5.80;3.20;;;24.50;55.70;;;;;;4891515;28;87476;-82
2022/08/31 12:09:50;;;;;;;6.97;2.90;;;24.60;55.70;;;;;;4949272;28;90659;-82
2022/08/31 12:12:27;;;;;;;6.80;2.90;;;24.60;55.40;;;;;;4953770;28;91056;-81
2022/08/31 12:15:06;;;;;;;4.70;2.97;;;24.60;55.50;;;;;;4927743;28;88600;-82
2022/08/31 12:18:03;;;;;;;7.38;3.13;;;24.50;55.50;;;;;;4927522;28;87400;-82
2022/08/31 12:24:02;;;;;;;9.52;3.30;;;24.70;55.50;;;;;;4895653;28;89622;-81
2022/08/31 12:26:48;;;;;;;4.85;2.95;;;24.60;55.60;;;;;;4914809;28;88497;-82
2022/08/31 12:29:20;;;;;;;7.68;3.10;;;24.60;55.50;;;;;;4907616;28;87722;-82
2022/08/31 12:32:07;;;;;;;5.40;3.22;;;24.60;55.40;;;;;;4905933;28;87459;-82
2022/08/31 12:34:45;;;;;;;5.47;2.60;;;24.60;55.50;;;;;;4904391;28;91082;-85
2022/08/31 12:37:35;;;;;;;6.78;2.75;;;24.70;55.30;;;;;;4906218;28;89120;-81
2022/08/31 12:40:20;;;;;;;7.53;3.22;;;24.70;55.10;;;;;;4863766;28;94286;-82
2022/08/31 12:43:33;;;;;;;6.22;3.10;;;24.70;54.90;;;;;;4879669;28;87540;-80
2022/08/31 12:46:28;;;;;;;6.20;2.90;;;24.70;54.80;;;;;;4871488;28;91106;-81
2022/08/31 12:49:02;;;;;;;11.10;3.15;;;24.70;55.30;;;;;;4871979;28;90870;-81
2022/08/31 12:51:46;;;;;;;6.82;3.47;;;24.70;55.60;;;;;;4871973;28;87402;-81
2022/08/31 12:54:49;;;;;;;9.57;3.42;;;24.70;55.50;;;;;;4872493;28;87661;-81
2022/08/31 12:57:34;;;;;;;5.82;2.97;;;24.60;55.50;;;;;;4868429;28;88003;-81
2022/08/31 13:00:06;;;;;;;8.10;3.10;;;24.70;55.40;;;;;;4852478;28;91088;-80
2022/08/31 13:02:36;;;;;;;7.68;2.97;;;24.70;55.10;;;;;;4850627;29;87135;-80
2022/08/31 13:05:03;;;;;;;5.32;3.15;;;24.70;54.80;;;;;;4850868;29;89080;-80
2022/08/31 13:07:31;;;;;;;4.68;3.13;;;24.70;54.80;;;;;;4851441;29;91026;-81
2022/08/31 13:10:26;;;;;;;7.10;2.77;;;24.80;54.60;;;;;;4850963;28;87831;-80
2022/08/31 13:12:55;;;;;;;10.65;3.10;;;24.80;54.80;;;;;;4849915;28;87870;-80
2022/08/31 13:15:35;;;;;;;3.67;2.80;;;24.80;54.90;;;;;;4848949;29;90618;-80
2022/08/31 13:18:07;;;;;;;5.75;3.33;;;24.80;54.90;;;;;;4838798;28;88633;-79
2022/08/31 13:20:39;;;;;;;7.55;2.92;;;24.70;54.80;;;;;;4831696;28;88551;-80
2022/08/31 13:23:10;;;;;;;7.00;2.97;;;24.70;54.90;;;;;;4938003;28;87691;-80
2022/08/31 13:25:37;;;;;;;5.93;3.33;;;24.70;55.00;;;;;;4958052;28;90412;-80
2022/08/31 13:28:24;;;;;;;4.32;2.95;;;24.70;55.00;;;;;;4951829;28;89639;-82
2022/08/31 13:31:02;;;;;;;7.60;3.00;;;24.70;54.90;;;;;;4927353;28;87929;-80
2022/08/31 13:33:31;;;;;;;9.27;3.00;;;24.70;54.70;;;;;;4925783;28;90313;-81